createdAt,value
2022-08-03T00:00:43.317Z,46.55
2022-08-03T00:03:12.238Z,46.18
2022-08-03T00:05:41.179Z,46.99
2022-08-03T00:08:30.570Z,47.35
2022-08-03T00:11:02.272Z,47.18
2022-08-03T00:13:32.568Z,47.00
2022-08-03T00:16:01.364Z,47.47
2022-08-03T00:18:30.064Z,47.29
2022-08-03T00:21:00.337Z,47.87
2022-08-03T00:23:51.682Z,47.84
2022-08-03T00:26:39.630Z,47.35
2022-08-03T00:29:11.420Z,47.86
2022-08-03T00:31:59.560Z,47.89
2022-08-03T00:34:57.363Z,48.09
2022-08-03T00:37:21.983Z,48.25
2022-08-03T00:40:12.071Z,48.27
2022-08-03T00:42:52.273Z,48.31
2022-08-03T00:45:26.525Z,48.84
2022-08-03T00:47:55.813Z,48.99
2022-08-03T00:50:25.751Z,49.15
2022-08-03T00:52:57.290Z,49.25
2022-08-03T00:55:26.271Z,48.83
2022-08-03T00:57:55.213Z,49.22
2022-08-03T01:00:26.414Z,48.57
2022-08-03T01:02:55.615Z,49.16
2022-08-03T01:05:24.326Z,49.56
2022-08-03T01:08:07.093Z,49.52
2022-08-03T01:10:43.221Z,49.42
2022-08-03T01:13:59.801Z,49.56
2022-08-03T01:16:36.011Z,49.58
2022-08-03T01:19:17.560Z,49.90
2022-08-03T01:22:01.130Z,49.91
2022-08-03T01:25:08.733Z,49.73
2022-08-03T01:27:49.298Z,49.94
2022-08-03T01:30:21.453Z,50.06
2022-08-03T01:33:01.418Z,50.41
2022-08-03T01:35:38.540Z,50.72
2022-08-03T01:38:13.456Z,50.63
2022-08-03T01:40:47.127Z,51.00
2022-08-03T01:44:27.947Z,50.90
2022-08-03T01:46:12.740Z,50.90
2022-08-03T01:48:45.206Z,50.98
2022-08-03T01:51:17.197Z,51.19
2022-08-03T01:53:49.307Z,51.69
2022-08-03T01:56:21.470Z,51.50
2022-08-03T01:58:53.595Z,51.77
2022-08-03T02:01:26.818Z,51.54
2022-08-03T02:04:19.918Z,51.71
2022-08-03T02:07:01.615Z,52.01
2022-08-03T02:09:36.926Z,51.95
2022-08-03T02:12:10.506Z,52.18
2022-08-03T02:14:43.647Z,52.16
2022-08-03T02:17:16.778Z,52.18
2022-08-03T02:19:47.843Z,52.45
2022-08-03T02:22:18.309Z,52.42
2022-08-03T02:24:49.349Z,52.53
2022-08-03T02:37:11.069Z,52.98
2022-08-03T02:39:43.845Z,53.25
2022-08-03T02:42:15.395Z,53.00
2022-08-03T02:44:48.553Z,53.44
2022-08-03T02:47:22.145Z,53.84
2022-08-03T02:49:53.372Z,53.40
2022-08-03T02:52:26.493Z,53.25
2022-08-03T02:54:59.762Z,53.65
2022-08-03T02:57:31.456Z,53.72
2022-08-03T03:00:02.387Z,53.71
2022-08-03T03:02:33.385Z,54.51
2022-08-03T03:05:55.201Z,54.21
2022-08-03T03:07:56.974Z,54.46
2022-08-03T03:10:27.255Z,54.56
2022-08-03T03:12:57.481Z,54.67
2022-08-03T03:15:28.107Z,54.86
2022-08-03T03:17:56.798Z,55.06
2022-08-03T03:20:29.677Z,54.99
2022-08-03T03:23:01.611Z,55.28
2022-08-03T03:25:32.430Z,55.97
2022-08-03T03:28:02.176Z,55.75
2022-08-03T03:30:31.090Z,56.11
2022-08-03T03:33:00.102Z,56.26
2022-08-03T03:35:29.264Z,56.32
2022-08-03T03:38:01.049Z,56.61
2022-08-03T03:40:29.994Z,56.38
2022-08-03T03:42:58.656Z,56.72
2022-08-03T03:45:27.880Z,56.84
2022-08-03T03:47:56.787Z,56.90
2022-08-03T03:50:25.627Z,57.71
2022-08-03T03:52:54.238Z,57.52
2022-08-03T03:55:24.778Z,57.15
2022-08-03T03:57:53.350Z,57.48
2022-08-03T04:00:22.038Z,57.01
2022-08-03T04:02:51.013Z,57.04
2022-08-03T04:05:37.329Z,57.24
2022-08-03T04:08:29.772Z,57.26
2022-08-03T04:11:15.822Z,57.04
2022-08-03T04:13:49.959Z,57.10
2022-08-03T04:16:20.751Z,57.35
2022-08-03T04:18:52.888Z,57.52
2022-08-03T04:21:23.538Z,57.67
2022-08-03T04:23:52.642Z,56.79
2022-08-03T04:26:23.804Z,58.44
2022-08-03T04:28:53.193Z,57.47
2022-08-03T04:31:23.677Z,57.97
2022-08-03T04:33:54.094Z,57.26
2022-08-03T04:36:24.038Z,57.54
2022-08-03T04:39:00.883Z,56.76
2022-08-03T04:41:31.881Z,56.89
2022-08-03T04:44:02.130Z,56.32
2022-08-03T04:46:40.252Z,56.75
2022-08-03T04:49:15.690Z,56.04
2022-08-03T04:51:44.897Z,55.98
2022-08-03T04:54:13.791Z,56.78
2022-08-03T04:56:44.734Z,56.88
2022-08-03T04:59:13.965Z,56.36
2022-08-03T05:01:43.067Z,55.73
2022-08-03T05:04:11.750Z,56.00
2022-08-03T05:06:47.860Z,55.50
2022-08-03T05:09:45.832Z,54.84
2022-08-03T05:12:08.260Z,53.92
2022-08-03T05:14:38.924Z,52.60
2022-08-03T05:17:07.977Z,50.78
2022-08-03T05:19:37.073Z,46.44
2022-08-03T05:22:05.713Z,45.32
2022-08-03T05:24:34.308Z,44.43
2022-08-03T05:27:03.150Z,42.54
2022-08-03T05:29:33.149Z,41.94
2022-08-03T05:32:07.759Z,41.67
2022-08-03T05:34:37.147Z,40.76
2022-08-03T05:37:07.277Z,40.13
2022-08-03T05:39:37.023Z,42.06
2022-08-03T05:42:05.783Z,42.54
2022-08-03T05:44:38.713Z,42.96
2022-08-03T05:47:07.714Z,43.13
2022-08-03T05:49:36.398Z,43.86
2022-08-03T05:52:12.951Z,43.86
2022-08-03T05:54:56.647Z,43.33
2022-08-03T05:57:26.673Z,42.96
2022-08-03T05:59:58.205Z,42.61
2022-08-03T06:02:27.724Z,42.35
2022-08-03T06:04:56.744Z,41.37
2022-08-03T06:07:25.367Z,41.11
2022-08-03T06:10:34.519Z,41.41
2022-08-03T06:12:42.878Z,41.41
2022-08-03T06:15:12.892Z,41.29
2022-08-03T06:17:48.418Z,41.62
2022-08-03T06:20:18.485Z,42.03
2022-08-03T06:22:51.016Z,42.50
2022-08-03T06:25:28.964Z,42.38
2022-08-03T06:27:57.765Z,42.81
2022-08-03T06:30:27.888Z,43.17
2022-08-03T06:32:56.767Z,43.07
2022-08-03T06:35:25.370Z,43.80
2022-08-03T06:37:54.068Z,42.60
2022-08-03T06:40:29.127Z,43.84
2022-08-03T06:42:58.318Z,44.53
2022-08-03T06:45:31.661Z,43.65
2022-08-03T06:48:05.727Z,43.97
2022-08-03T06:50:35.520Z,44.20
2022-08-03T06:53:04.826Z,43.56
2022-08-03T06:55:36.003Z,43.86
2022-08-03T06:58:13.931Z,43.48
2022-08-03T07:00:43.995Z,44.27
2022-08-03T07:03:12.840Z,43.77
2022-08-03T07:05:41.408Z,43.96
2022-08-03T07:08:10.061Z,42.94
2022-08-03T07:10:39.151Z,43.12
2022-08-03T07:13:08.288Z,43.42
2022-08-03T07:15:55.768Z,43.09
2022-08-03T07:18:29.630Z,42.81
2022-08-03T07:20:58.945Z,42.84
2022-08-03T07:23:27.830Z,43.13
2022-08-03T07:25:56.475Z,42.98
2022-08-03T07:28:25.106Z,42.26
2022-08-03T07:30:53.956Z,42.45
2022-08-03T07:33:22.588Z,42.48
2022-08-03T07:35:52.566Z,43.03
2022-08-03T07:38:21.495Z,42.76
2022-08-03T07:40:50.318Z,41.71
2022-08-03T07:43:18.949Z,40.89
2022-08-03T07:45:47.917Z,41.93
2022-08-03T07:48:17.758Z,42.24
2022-08-03T07:50:46.585Z,41.83
2022-08-03T07:53:16.981Z,41.56
2022-08-03T07:55:45.628Z,41.43
2022-08-03T07:58:22.095Z,41.98
2022-08-03T08:00:54.000Z,40.54
2022-08-03T08:03:22.944Z,41.08
2022-08-03T08:05:51.552Z,41.04
2022-08-03T08:08:21.512Z,40.07
2022-08-03T08:10:58.460Z,40.26
2022-08-03T08:13:27.441Z,39.88
2022-08-03T08:15:56.344Z,40.34
2022-08-03T08:18:25.112Z,39.31
2022-08-03T08:20:53.712Z,40.47
2022-08-03T08:23:41.898Z,39.89
2022-08-03T08:26:12.356Z,40.61
2022-08-03T08:28:41.323Z,39.86
2022-08-03T08:31:09.946Z,39.77
2022-08-03T08:36:27.407Z,38.85
2022-08-03T08:38:57.335Z,38.30
2022-08-03T08:41:32.146Z,39.15
2022-08-03T08:44:01.698Z,38.73
2022-08-03T08:46:33.827Z,38.96
2022-08-03T08:49:04.833Z,38.67
2022-08-03T08:51:59.476Z,37.89
2022-08-03T08:54:28.050Z,38.39
2022-08-03T08:56:59.351Z,38.15
2022-08-03T08:59:48.726Z,37.82
2022-08-03T09:02:17.772Z,37.60
2022-08-03T09:04:48.857Z,37.23
2022-08-03T09:07:20.710Z,37.66
2022-08-03T09:10:11.766Z,37.82
2022-08-03T09:12:42.544Z,36.34
2022-08-03T09:15:19.347Z,35.87
2022-08-03T09:17:51.087Z,36.12
2022-08-03T09:20:23.020Z,35.81
2022-08-03T09:22:57.090Z,36.32
2022-08-03T09:25:34.692Z,35.28
2022-08-03T09:28:10.347Z,35.43
2022-08-03T09:30:41.286Z,34.99
2022-08-03T09:33:12.131Z,35.02
2022-08-03T09:35:58.803Z,35.11
2022-08-03T09:38:27.613Z,34.74
2022-08-03T09:41:00.971Z,35.24
2022-08-03T09:43:47.198Z,34.55
2022-08-03T09:46:16.169Z,34.60
2022-08-03T09:48:44.849Z,36.03
2022-08-03T09:52:22.992Z,35.69
2022-08-03T09:54:07.591Z,34.26
2022-08-03T09:56:42.539Z,34.59
2022-08-03T09:59:12.683Z,34.21
2022-08-03T10:01:44.537Z,33.32
2022-08-03T10:04:16.927Z,33.17
2022-08-03T10:06:46.275Z,33.49
2022-08-03T10:09:16.889Z,32.88
2022-08-03T10:11:47.914Z,32.50
2022-08-03T10:14:19.978Z,32.28
2022-08-03T10:16:49.233Z,31.79
2022-08-03T10:19:18.439Z,32.46
2022-08-03T10:21:50.848Z,31.23
2022-08-03T10:24:25.294Z,31.37
2022-08-03T10:27:00.887Z,30.75
2022-08-03T10:29:30.188Z,31.03
2022-08-03T10:32:00.019Z,31.74
2022-08-03T10:34:30.770Z,31.79
2022-08-03T10:37:01.392Z,31.00
2022-08-03T10:39:34.937Z,31.64
2022-08-03T10:42:05.520Z,29.97
2022-08-03T10:44:43.640Z,30.22
2022-08-03T10:47:12.814Z,30.14
2022-08-03T10:49:41.922Z,30.13
2022-08-03T10:52:13.853Z,30.89
2022-08-03T10:55:33.084Z,30.63
2022-08-03T10:58:07.984Z,29.82
2022-08-03T11:00:50.289Z,29.43
2022-08-03T11:03:19.251Z,29.13
2022-08-03T11:05:50.160Z,28.56
2022-08-03T11:08:33.696Z,27.59
2022-08-03T11:11:04.570Z,26.31
2022-08-03T11:13:34.825Z,26.02
2022-08-03T11:16:07.219Z,26.15
2022-08-03T11:18:57.086Z,27.12
2022-08-03T11:21:59.044Z,27.36
2022-08-03T11:24:58.881Z,28.31
2022-08-03T11:27:31.959Z,28.94
2022-08-03T11:30:08.103Z,28.68
2022-08-03T11:32:53.556Z,28.16
2022-08-03T11:35:23.895Z,26.87
2022-08-03T11:38:07.205Z,26.51
2022-08-03T11:40:38.727Z,26.65
2022-08-03T11:43:08.789Z,27.13
2022-08-03T11:45:39.264Z,26.95
2022-08-03T11:48:16.507Z,26.57
2022-08-03T11:50:46.331Z,27.98
2022-08-03T11:53:21.285Z,26.30
2022-08-03T11:55:50.285Z,25.75
2022-08-03T11:59:01.382Z,26.76
2022-08-03T12:01:14.102Z,29.13
2022-08-03T12:03:43.082Z,28.22
2022-08-03T12:06:12.531Z,27.11
2022-08-03T12:08:42.327Z,27.93
2022-08-03T12:11:13.059Z,26.63
2022-08-03T12:14:44.636Z,26.96
2022-08-03T12:16:33.604Z,27.80
2022-08-03T12:19:04.903Z,28.24
2022-08-03T12:21:34.043Z,27.54
2022-08-03T12:24:04.015Z,29.83
2022-08-03T12:26:45.323Z,30.29
2022-08-03T12:29:28.267Z,29.27
2022-08-03T12:31:58.641Z,27.96
2022-08-03T12:34:48.230Z,27.83
2022-08-03T12:37:22.819Z,30.11
2022-08-03T12:40:02.195Z,29.35
2022-08-03T12:42:36.631Z,31.07
2022-08-03T12:45:24.278Z,29.64
2022-08-03T12:47:56.176Z,30.62
2022-08-03T12:50:26.628Z,28.23
2022-08-03T12:52:55.749Z,26.89
2022-08-03T12:55:24.726Z,27.59
2022-08-03T12:57:53.367Z,24.85
2022-08-03T13:00:28.756Z,25.19
2022-08-03T13:03:38.381Z,24.51
2022-08-03T13:05:52.849Z,23.97
2022-08-03T13:08:22.191Z,21.49
2022-08-03T13:10:51.257Z,21.14
2022-08-03T13:13:22.406Z,21.86
2022-08-03T13:15:52.289Z,20.33
2022-08-03T13:18:22.537Z,21.27
2022-08-03T13:20:51.195Z,20.46
2022-08-03T13:23:22.220Z,20.40
2022-08-03T13:25:55.592Z,21.01
2022-08-03T13:28:24.732Z,20.50
2022-08-03T13:30:54.835Z,19.83
2022-08-03T13:33:24.856Z,20.20
2022-08-03T13:35:53.790Z,21.26
2022-08-03T13:38:22.499Z,22.18
2022-08-03T13:40:56.371Z,22.67
2022-08-03T13:43:25.333Z,21.70
2022-08-03T13:45:57.688Z,21.54
2022-08-03T13:48:36.112Z,22.39
2022-08-03T13:51:22.274Z,21.52
2022-08-03T13:53:52.255Z,21.48
2022-08-03T13:56:20.965Z,21.25
2022-08-03T13:58:49.590Z,20.17
2022-08-03T14:01:25.945Z,20.34
2022-08-03T14:04:21.971Z,19.97
2022-08-03T14:06:51.045Z,18.82
2022-08-03T14:09:19.923Z,20.29
2022-08-03T14:12:04.164Z,19.56
2022-08-03T14:14:37.761Z,19.39
2022-08-03T14:17:06.526Z,19.19
2022-08-03T14:19:44.918Z,18.59
2022-08-03T14:22:22.755Z,18.72
2022-08-03T14:24:51.326Z,18.83
2022-08-03T14:27:20.358Z,18.51
2022-08-03T14:29:49.324Z,17.48
2022-08-03T14:32:17.922Z,17.88
2022-08-03T14:34:47.914Z,17.50
2022-08-03T14:37:16.727Z,18.38
2022-08-03T14:40:02.348Z,18.38
2022-08-03T14:42:31.296Z,18.32
2022-08-03T14:45:04.632Z,17.39
2022-08-03T14:49:02.241Z,18.10
2022-08-03T14:50:37.683Z,18.36
2022-08-03T14:53:10.900Z,17.84
2022-08-03T14:55:49.611Z,18.50
2022-08-03T14:58:21.024Z,18.86
2022-08-03T15:00:51.226Z,18.20
2022-08-03T15:03:23.129Z,19.45
2022-08-03T15:05:54.051Z,18.76
2022-08-03T15:08:25.468Z,20.02
2022-08-03T15:10:54.600Z,22.16
2022-08-03T15:13:25.292Z,22.61
2022-08-03T15:15:53.905Z,22.56
2022-08-03T15:18:22.846Z,23.11
2022-08-03T15:20:51.424Z,23.37
2022-08-03T15:23:21.389Z,25.08
2022-08-03T15:26:30.239Z,25.49
2022-08-03T15:28:38.873Z,25.67
2022-08-03T15:31:07.822Z,27.11
2022-08-03T15:33:36.427Z,27.55
2022-08-03T15:36:05.731Z,28.03
2022-08-03T15:38:35.962Z,28.37
2022-08-03T15:41:04.627Z,28.46
2022-08-03T15:43:33.249Z,29.13
2022-08-03T15:48:56.301Z,30.34
2022-08-03T15:51:25.576Z,26.69
2022-08-03T15:53:56.191Z,24.08
2022-08-03T15:56:25.070Z,25.49
2022-08-03T15:59:03.903Z,23.57
2022-08-03T16:01:42.316Z,24.41
2022-08-03T16:04:11.266Z,23.27
2022-08-03T16:06:39.899Z,21.94
2022-08-03T16:09:23.919Z,22.74
2022-08-03T16:11:59.240Z,22.69
2022-08-03T16:14:33.290Z,22.81
2022-08-03T16:17:06.847Z,22.56
2022-08-03T16:19:35.776Z,23.75
2022-08-03T16:22:04.466Z,22.37
2022-08-03T16:24:38.444Z,22.28
2022-08-03T16:27:17.685Z,21.69
2022-08-03T16:29:57.690Z,21.33
2022-08-03T16:32:26.324Z,22.17
2022-08-03T16:34:54.925Z,22.84
2022-08-03T16:37:38.136Z,22.63
2022-08-03T16:40:17.307Z,22.57
2022-08-03T16:42:48.148Z,22.61
2022-08-03T16:45:16.682Z,23.65
2022-08-03T16:47:45.320Z,24.23
2022-08-03T16:50:19.248Z,24.06
2022-08-03T16:52:48.761Z,23.42
2022-08-03T16:55:48.418Z,24.14
2022-08-03T16:58:08.237Z,24.30
2022-08-03T17:00:42.124Z,24.36
2022-08-03T17:03:18.867Z,24.81
2022-08-03T17:05:50.894Z,25.27
2022-08-03T17:08:26.634Z,25.43
2022-08-03T17:10:57.975Z,25.82
2022-08-03T17:13:39.216Z,27.11
2022-08-03T17:16:12.055Z,27.63
2022-08-03T17:18:48.551Z,26.47
2022-08-03T17:21:24.851Z,28.73
2022-08-03T17:24:01.648Z,27.83
2022-08-03T17:26:32.981Z,27.67
2022-08-03T17:29:12.926Z,30.34
2022-08-03T17:31:49.005Z,28.08
2022-08-03T17:34:19.093Z,27.78
2022-08-03T17:37:05.878Z,27.96
2022-08-03T17:42:30.814Z,29.29
2022-08-03T17:45:01.576Z,30.77
2022-08-03T17:47:42.443Z,31.65
2022-08-03T17:50:23.478Z,31.85
2022-08-03T17:53:07.888Z,32.24
2022-08-03T17:55:55.384Z,32.72
2022-08-03T17:58:41.390Z,32.88
2022-08-03T18:02:00.479Z,32.81
2022-08-03T18:04:30.405Z,33.26
2022-08-03T18:07:11.192Z,33.41
2022-08-03T18:10:04.729Z,34.40
2022-08-03T18:12:39.543Z,35.24
2022-08-03T18:15:22.997Z,35.73
2022-08-03T18:17:58.215Z,35.77
2022-08-03T18:20:40.868Z,35.28
2022-08-03T18:23:25.291Z,35.63
2022-08-03T18:26:06.824Z,35.52
2022-08-03T18:28:40.451Z,35.28
2022-08-03T18:31:12.775Z,35.58
2022-08-03T18:34:16.659Z,36.24
2022-08-03T18:36:50.437Z,37.02
2022-08-03T18:39:19.693Z,36.76
2022-08-03T18:41:51.006Z,36.75
2022-08-03T18:44:45.613Z,37.03
2022-08-03T18:47:20.209Z,36.96
2022-08-03T18:49:58.692Z,36.91
2022-08-03T18:52:30.791Z,36.88
2022-08-03T18:55:12.505Z,37.01
2022-08-03T18:57:51.424Z,37.31
2022-08-03T19:00:24.366Z,37.58
2022-08-03T19:03:09.246Z,37.93
2022-08-03T19:05:56.267Z,37.77
2022-08-03T19:08:37.995Z,37.57
2022-08-03T19:11:09.319Z,38.07
2022-08-03T19:13:50.019Z,37.97
2022-08-03T19:16:23.273Z,37.10
2022-08-03T19:18:55.872Z,37.88
2022-08-03T19:21:25.035Z,38.10
2022-08-03T19:23:55.523Z,38.34
2022-08-03T19:29:17.984Z,38.92
2022-08-03T19:31:58.792Z,38.69
2022-08-03T19:34:33.469Z,39.00
2022-08-03T19:37:09.630Z,38.93
2022-08-03T19:39:47.090Z,38.99
2022-08-03T19:42:31.376Z,38.87
2022-08-03T19:45:11.385Z,39.26
2022-08-03T19:47:46.782Z,39.33
2022-08-03T19:50:19.371Z,39.81
2022-08-03T19:52:50.426Z,39.16
2022-08-03T19:55:19.769Z,40.25
2022-08-03T19:57:49.678Z,39.94
2022-08-03T20:00:26.704Z,40.19
2022-08-03T20:03:00.106Z,40.33
2022-08-03T20:05:30.641Z,40.27
2022-08-03T20:08:14.980Z,40.00
2022-08-03T20:10:50.075Z,40.28
2022-08-03T20:13:21.478Z,40.32
2022-08-03T20:15:57.326Z,39.97
2022-08-03T20:18:26.578Z,40.01
2022-08-03T20:20:57.867Z,40.21
2022-08-03T20:23:28.256Z,40.19
2022-08-03T20:26:07.357Z,40.20
2022-08-03T20:28:50.196Z,40.47
2022-08-03T20:31:25.163Z,40.07
2022-08-03T20:34:01.809Z,40.22
2022-08-03T20:36:31.780Z,39.89
2022-08-03T20:39:01.031Z,39.83
2022-08-03T20:41:30.592Z,39.72
2022-08-03T20:44:00.925Z,39.41
2022-08-03T20:46:41.404Z,39.67
2022-08-03T20:49:21.291Z,39.54
2022-08-03T20:51:53.900Z,39.77
2022-08-03T20:54:31.193Z,39.68
2022-08-03T20:57:04.239Z,39.69
2022-08-03T20:59:50.839Z,39.72
2022-08-03T21:02:28.946Z,40.09
2022-08-03T21:05:03.737Z,39.83
2022-08-03T21:08:04.354Z,39.86
2022-08-03T21:10:32.954Z,40.04
2022-08-03T21:13:02.203Z,38.53
2022-08-03T21:13:16.297Z,39.29
2022-08-03T21:16:12.455Z,39.09
2022-08-03T21:18:44.141Z,37.93
2022-08-03T21:21:15.899Z,37.70
2022-08-03T21:23:49.099Z,38.62
2022-08-03T21:26:18.895Z,38.44
2022-08-03T21:28:48.998Z,37.76
2022-08-03T21:31:23.719Z,38.60
2022-08-03T21:33:56.281Z,38.14
2022-08-03T21:36:25.996Z,38.06
2022-08-03T21:38:57.703Z,37.98
2022-08-03T21:41:27.511Z,37.81
2022-08-03T21:43:56.422Z,37.35
2022-08-03T21:46:25.414Z,37.27
2022-08-03T21:50:02.669Z,37.45
2022-08-03T21:51:51.481Z,37.01
2022-08-03T21:54:22.595Z,36.44
2022-08-03T21:56:52.592Z,36.43
2022-08-03T21:59:21.917Z,35.26
2022-08-03T22:01:55.350Z,36.00
2022-08-03T22:04:53.322Z,35.26
2022-08-03T22:07:17.040Z,36.00
2022-08-03T22:09:51.391Z,35.69
2022-08-03T22:12:24.460Z,35.94
2022-08-03T22:15:00.107Z,35.08
2022-08-03T22:17:53.740Z,35.27
2022-08-03T22:20:22.536Z,34.58
2022-08-03T22:22:56.577Z,34.97
2022-08-03T22:25:29.915Z,35.08
2022-08-03T22:28:00.572Z,34.25
2022-08-03T22:30:29.784Z,34.64
2022-08-03T22:32:59.160Z,35.46
2022-08-03T22:35:28.480Z,35.25
2022-08-03T22:37:59.503Z,35.50
2022-08-03T22:40:29.703Z,34.77
2022-08-03T22:42:58.854Z,34.96
2022-08-03T22:46:07.428Z,34.89
2022-08-03T22:48:18.049Z,34.63
2022-08-03T22:50:49.985Z,35.08
2022-08-03T22:53:20.215Z,35.69
2022-08-03T22:55:50.936Z,35.48
2022-08-03T22:58:21.705Z,35.67
2022-08-03T23:00:54.120Z,36.67
2022-08-03T23:03:25.940Z,35.48
2022-08-03T23:06:15.770Z,36.34
2022-08-03T23:08:47.482Z,35.86
2022-08-03T23:11:19.118Z,36.16
2022-08-03T23:13:48.763Z,36.93
2022-08-03T23:16:28.770Z,37.19
2022-08-03T23:19:06.564Z,37.51
2022-08-03T23:21:52.884Z,36.37
2022-08-03T23:24:30.189Z,37.08
2022-08-03T23:27:00.786Z,37.30
2022-08-03T23:29:31.739Z,36.37
2022-08-03T23:32:02.566Z,36.58
2022-08-03T23:34:51.167Z,37.45
2022-08-03T23:37:20.760Z,37.17
2022-08-03T23:39:50.137Z,37.48
2022-08-03T23:42:21.351Z,36.86
2022-08-03T23:44:55.361Z,37.10
2022-08-03T23:47:24.675Z,37.96
2022-08-03T23:50:13.453Z,37.67
2022-08-03T23:52:51.768Z,36.37
2022-08-03T23:55:36.133Z,37.37
2022-08-03T23:58:12.543Z,37.23
